createdAt,value
2022-08-20T00:01:19.522Z,53.74
2022-08-20T00:03:57.645Z,54.02
2022-08-20T00:07:00.273Z,53.70
2022-08-20T00:09:29.985Z,53.77
2022-08-20T00:11:57.441Z,53.71
2022-08-20T00:14:24.860Z,53.90
2022-08-20T00:16:53.029Z,53.86
2022-08-20T00:19:21.122Z,53.84
2022-08-20T00:21:53.086Z,53.84
2022-08-20T00:24:26.238Z,53.77
2022-08-20T00:26:54.361Z,54.00
2022-08-20T00:29:28.309Z,54.20
2022-08-20T00:31:56.393Z,53.92
2022-08-20T00:34:24.479Z,54.04
2022-08-20T00:36:52.543Z,53.84
2022-08-20T00:39:20.618Z,54.37
2022-08-20T00:41:48.726Z,54.29
2022-08-20T00:44:23.819Z,54.48
2022-08-20T00:46:51.840Z,53.88
2022-08-20T00:49:28.038Z,54.25
2022-08-20T00:51:59.956Z,54.10
2022-08-20T00:54:47.991Z,53.88
2022-08-20T00:57:27.315Z,54.01
2022-08-20T01:00:17.105Z,53.88
2022-08-20T01:02:45.171Z,54.08
2022-08-20T01:05:13.198Z,54.20
2022-08-20T01:07:41.256Z,54.10
2022-08-20T01:10:15.317Z,54.20
2022-08-20T01:12:48.371Z,53.77
2022-08-20T01:15:26.895Z,53.83
2022-08-20T01:17:59.467Z,54.26
2022-08-20T01:20:40.756Z,54.29
2022-08-20T01:23:33.574Z,54.47
2022-08-20T01:26:22.640Z,54.06
2022-08-20T01:28:55.692Z,54.54
2022-08-20T01:31:27.776Z,54.22
2022-08-20T01:33:55.826Z,54.17
2022-08-20T01:36:35.889Z,54.37
2022-08-20T01:39:04.940Z,54.35
2022-08-20T01:42:03.021Z,54.11
2022-08-20T01:44:31.090Z,54.03
2022-08-20T01:47:00.059Z,54.22
2022-08-20T01:49:30.168Z,54.17
2022-08-20T01:52:00.238Z,54.54
2022-08-20T01:54:28.266Z,54.21
2022-08-20T01:57:02.326Z,54.50
2022-08-20T01:59:30.388Z,54.28
2022-08-20T02:02:21.796Z,54.29
2022-08-20T02:04:49.501Z,54.22
2022-08-20T02:07:19.539Z,54.26
2022-08-20T02:09:47.602Z,54.51
2022-08-20T02:12:15.649Z,54.58
2022-08-20T02:14:44.720Z,54.23
2022-08-20T02:17:12.767Z,54.70
2022-08-20T02:19:49.819Z,54.50
2022-08-20T02:22:36.867Z,54.15
2022-08-20T02:25:06.922Z,54.30
2022-08-20T02:27:34.891Z,54.76
2022-08-20T02:30:28.610Z,54.72
2022-08-20T02:32:59.966Z,54.87
2022-08-20T02:35:28.241Z,54.41
2022-08-20T02:37:56.326Z,54.83
2022-08-20T02:40:31.130Z,54.60
2022-08-20T02:43:02.380Z,54.26
2022-08-20T02:45:30.482Z,54.53
2022-08-20T02:47:59.564Z,54.62
2022-08-20T02:50:28.620Z,54.68
2022-08-20T02:52:56.668Z,54.53
2022-08-20T02:55:49.698Z,54.32
2022-08-20T02:58:17.746Z,54.80
2022-08-20T03:00:45.798Z,54.52
2022-08-20T03:03:13.857Z,54.48
2022-08-20T03:05:42.897Z,54.24
2022-08-20T03:08:34.989Z,54.83
2022-08-20T03:11:03.006Z,54.75
2022-08-20T03:13:30.638Z,54.89
2022-08-20T03:16:00.109Z,54.35
2022-08-20T03:18:36.406Z,54.38
2022-08-20T03:21:04.426Z,54.46
2022-08-20T03:23:35.266Z,54.92
2022-08-20T03:26:04.304Z,54.81
2022-08-20T03:28:32.354Z,54.60
2022-08-20T03:31:00.416Z,54.94
2022-08-20T03:33:28.479Z,54.97
2022-08-20T03:35:56.630Z,54.64
2022-08-20T03:38:32.984Z,54.87
2022-08-20T03:41:02.638Z,54.86
2022-08-20T03:43:30.698Z,54.72
2022-08-20T03:45:58.778Z,54.62
2022-08-20T03:48:26.795Z,54.48
2022-08-20T03:50:54.841Z,54.88
2022-08-20T03:53:23.905Z,54.39
2022-08-20T03:56:00.491Z,54.93
2022-08-20T03:58:35.115Z,54.89
2022-08-20T04:01:04.173Z,54.96
2022-08-20T04:03:32.124Z,54.97
2022-08-20T04:06:00.172Z,54.64
2022-08-20T04:08:30.263Z,54.69
2022-08-20T04:11:00.718Z,54.65
2022-08-20T04:13:29.169Z,54.52
2022-08-20T04:15:57.392Z,54.87
2022-08-20T04:18:26.439Z,54.92
2022-08-20T04:21:18.492Z,55.02
2022-08-20T04:23:46.544Z,55.01
2022-08-20T04:26:14.574Z,54.81
2022-08-20T04:28:42.635Z,54.58
2022-08-20T04:31:10.683Z,54.87
2022-08-20T04:33:43.648Z,54.61
2022-08-20T04:36:11.843Z,54.37
2022-08-20T04:38:48.208Z,54.69
2022-08-20T04:41:24.197Z,54.58
2022-08-20T04:43:56.011Z,54.31
2022-08-20T04:46:45.300Z,54.47
2022-08-20T04:49:38.180Z,54.77
2022-08-20T04:52:06.127Z,54.80
2022-08-20T04:54:34.189Z,54.43
2022-08-20T04:57:03.245Z,54.78
2022-08-20T04:59:31.279Z,54.42
2022-08-20T05:01:59.336Z,54.40
2022-08-20T05:04:28.374Z,54.62
2022-08-20T05:06:57.427Z,54.70
2022-08-20T05:09:26.494Z,54.46
2022-08-20T05:11:54.531Z,54.59
2022-08-20T05:14:22.577Z,54.27
2022-08-20T05:17:16.652Z,54.41
2022-08-20T05:19:44.684Z,54.51
2022-08-20T05:22:12.722Z,54.36
2022-08-20T05:24:40.770Z,54.82
2022-08-20T05:27:08.558Z,54.28
2022-08-20T05:29:53.886Z,54.90
2022-08-20T05:32:22.930Z,54.56
2022-08-20T05:34:51.998Z,54.61
2022-08-20T05:37:20.059Z,54.47
2022-08-20T05:39:48.190Z,55.17
2022-08-20T05:42:16.178Z,55.00
2022-08-20T05:44:43.886Z,55.55
2022-08-20T05:47:11.250Z,55.42
2022-08-20T05:49:39.302Z,55.53
2022-08-20T05:52:07.346Z,55.83
2022-08-20T05:54:34.853Z,55.58
2022-08-20T05:57:03.446Z,56.29
2022-08-20T05:59:56.509Z,56.42
2022-08-20T06:02:42.567Z,56.33
2022-08-20T06:05:31.772Z,56.26
2022-08-20T06:08:07.860Z,56.52
2022-08-20T06:10:36.730Z,56.35
2022-08-20T06:13:05.786Z,56.43
2022-08-20T06:15:33.854Z,56.38
2022-08-20T06:18:08.375Z,56.55
2022-08-20T06:20:52.952Z,56.51
2022-08-20T06:23:21.004Z,56.70
2022-08-20T06:25:51.045Z,57.04
2022-08-20T06:28:20.113Z,57.00
2022-08-20T06:30:51.158Z,57.09
2022-08-20T06:33:19.386Z,56.96
2022-08-20T06:35:47.272Z,57.13
2022-08-20T06:38:15.312Z,57.17
2022-08-20T06:40:43.358Z,57.04
2022-08-20T06:43:12.443Z,57.14
2022-08-20T06:45:40.502Z,57.55
2022-08-20T06:48:39.232Z,57.55
2022-08-20T06:51:07.575Z,57.20
2022-08-20T06:53:36.512Z,56.96
2022-08-20T06:56:04.729Z,57.60
2022-08-20T06:58:37.763Z,57.12
2022-08-20T07:01:10.778Z,57.30
2022-08-20T07:03:42.206Z,57.24
2022-08-20T07:06:23.872Z,57.43
2022-08-20T07:08:51.982Z,57.63
2022-08-20T07:11:27.332Z,57.85
2022-08-20T07:13:57.147Z,57.66
2022-08-20T07:16:26.159Z,57.62
2022-08-20T07:18:54.206Z,58.05
2022-08-20T07:21:22.257Z,58.00
2022-08-20T07:23:50.295Z,57.91
2022-08-20T07:26:18.351Z,57.83
2022-08-20T07:29:11.442Z,57.75
2022-08-20T07:31:57.467Z,57.77
2022-08-20T07:34:25.082Z,57.53
2022-08-20T07:36:52.562Z,58.20
2022-08-20T07:39:23.619Z,58.10
2022-08-20T07:42:03.667Z,58.17
2022-08-20T07:44:31.714Z,57.85
2022-08-20T07:47:29.992Z,57.73
2022-08-20T07:49:58.306Z,57.50
2022-08-20T07:52:25.893Z,57.64
2022-08-20T07:54:53.939Z,57.79
2022-08-20T07:57:52.395Z,57.96
2022-08-20T08:00:23.166Z,57.99
2022-08-20T08:02:51.129Z,57.39
2022-08-20T08:05:19.179Z,56.75
2022-08-20T08:08:18.225Z,57.63
2022-08-20T08:11:10.264Z,57.50
2022-08-20T08:13:44.779Z,57.79
2022-08-20T08:16:12.282Z,58.36
2022-08-20T08:18:45.277Z,58.21
2022-08-20T08:21:17.545Z,58.07
2022-08-20T08:23:45.667Z,58.27
2022-08-20T08:26:16.237Z,58.70
2022-08-20T08:28:46.638Z,58.98
2022-08-20T08:31:14.618Z,59.30
2022-08-20T08:47:46.216Z,60.06
2022-08-20T08:50:49.974Z,60.48
2022-08-20T08:53:25.319Z,59.82
2022-08-20T08:56:18.296Z,59.89
2022-08-20T08:58:47.326Z,59.82
2022-08-20T09:01:55.540Z,60.10
2022-08-20T09:04:28.067Z,60.26
2022-08-20T09:06:57.542Z,60.34
2022-08-20T09:09:42.370Z,60.39
2022-08-20T09:12:15.658Z,60.52
2022-08-20T09:14:43.720Z,60.51
2022-08-20T09:17:11.763Z,60.40
2022-08-20T09:19:39.221Z,60.53
2022-08-20T09:22:17.877Z,60.03
2022-08-20T09:24:46.920Z,60.23
2022-08-20T09:27:14.971Z,59.92
2022-08-20T09:29:43.019Z,59.97
2022-08-20T09:32:17.294Z,59.70
2022-08-20T09:34:46.114Z,59.49
2022-08-20T09:37:14.173Z,60.10
2022-08-20T10:17:58.304Z,60.52
2022-08-20T10:20:50.187Z,60.62
2022-08-20T10:23:18.153Z,61.03
2022-08-20T10:25:46.149Z,60.81
2022-08-20T10:28:15.229Z,60.98
2022-08-20T10:30:43.254Z,61.07
2022-08-20T10:33:11.308Z,61.00
2022-08-20T10:35:39.370Z,60.92
2022-08-20T10:38:07.416Z,60.95
2022-08-20T10:40:35.472Z,61.15
2022-08-20T10:43:04.515Z,60.93
2022-08-20T10:45:32.594Z,61.06
2022-08-20T10:48:01.652Z,60.99
2022-08-20T10:50:30.680Z,60.63
2022-08-20T10:52:58.751Z,61.18
2022-08-20T10:55:26.877Z,61.34
2022-08-20T10:58:39.954Z,61.10
2022-08-20T11:01:12.489Z,61.43
2022-08-20T11:04:22.339Z,61.42
2022-08-20T11:06:50.059Z,61.17
2022-08-20T11:09:18.166Z,61.29
2022-08-20T11:11:46.193Z,61.25
2022-08-20T11:14:58.274Z,61.55
2022-08-20T11:17:30.955Z,61.55
2022-08-20T11:19:59.321Z,61.21
2022-08-20T11:22:27.364Z,61.49
2022-08-20T11:24:56.131Z,61.45
2022-08-20T11:27:28.481Z,61.78
2022-08-20T11:29:56.529Z,61.13
2022-08-20T11:32:25.604Z,61.16
2022-08-20T11:35:41.002Z,61.31
2022-08-20T11:38:03.706Z,61.23
2022-08-20T11:40:33.504Z,61.38
2022-08-20T11:43:17.569Z,61.26
2022-08-20T11:45:47.868Z,61.64
2022-08-20T11:48:15.932Z,61.54
2022-08-20T11:50:43.981Z,61.17
2022-08-20T11:53:13.021Z,61.16
2022-08-20T11:55:43.076Z,60.50
2022-08-20T11:58:12.635Z,60.63
2022-08-20T12:00:40.172Z,60.61
2022-08-20T12:03:12.775Z,60.63
2022-08-20T12:05:45.950Z,60.77
2022-08-20T12:08:25.221Z,60.84
2022-08-20T12:13:48.064Z,60.67
2022-08-20T12:16:26.944Z,61.02
2022-08-20T12:21:37.381Z,61.39
2022-08-20T12:24:07.606Z,61.04
2022-08-20T12:26:36.543Z,61.03
2022-08-20T12:29:04.768Z,61.08
2022-08-20T12:31:33.753Z,60.90
2022-08-20T12:34:01.804Z,61.13
2022-08-20T12:36:29.881Z,60.94
2022-08-20T12:38:58.035Z,60.75
2022-08-20T12:41:26.963Z,61.34
2022-08-20T12:43:55.464Z,61.09
2022-08-20T12:46:22.912Z,60.96
2022-08-20T12:48:52.113Z,60.84
2022-08-20T12:51:22.304Z,61.30
2022-08-20T12:53:50.384Z,61.19
2022-08-20T12:56:18.497Z,61.46
2022-08-20T12:58:48.157Z,60.82
2022-08-20T13:01:17.203Z,61.19
2022-08-20T13:03:47.564Z,60.86
2022-08-20T13:06:15.428Z,60.93
2022-08-20T13:08:44.424Z,61.51
2022-08-20T13:11:12.528Z,61.12
2022-08-20T13:13:40.594Z,61.37
2022-08-20T13:16:08.591Z,61.27
2022-08-20T13:18:37.062Z,61.44
2022-08-20T13:21:06.547Z,60.81
2022-08-20T13:23:34.777Z,60.83
2022-08-20T13:26:03.832Z,60.91
2022-08-20T13:28:31.893Z,61.20
2022-08-20T13:31:00.807Z,60.76
2022-08-20T13:33:29.974Z,61.14
2022-08-20T13:36:00.273Z,61.08
2022-08-20T13:38:33.062Z,61.05
2022-08-20T13:41:02.166Z,60.89
2022-08-20T13:43:31.179Z,60.91
2022-08-20T13:45:59.232Z,61.11
2022-08-20T13:48:27.287Z,61.33
2022-08-20T13:50:55.322Z,60.97
2022-08-20T13:53:25.371Z,60.84
2022-08-20T13:56:18.550Z,60.77
2022-08-20T13:58:46.521Z,60.77
2022-08-20T14:01:14.603Z,61.03
2022-08-20T14:03:42.661Z,61.02
2022-08-20T14:06:15.022Z,60.76
2022-08-20T14:08:44.585Z,60.93
2022-08-20T14:11:17.588Z,61.10
2022-08-20T14:14:16.727Z,60.93
2022-08-20T14:16:44.839Z,61.03
2022-08-20T14:19:14.761Z,60.97
2022-08-20T14:21:43.994Z,60.96
2022-08-20T14:24:11.998Z,60.93
2022-08-20T14:26:40.066Z,61.13
2022-08-20T14:29:08.124Z,60.77
2022-08-20T14:31:36.098Z,60.97
2022-08-20T14:34:04.186Z,61.16
2022-08-20T14:36:32.259Z,61.02
2022-08-20T14:39:00.330Z,61.10
2022-08-20T14:41:29.176Z,60.50
2022-08-20T14:43:57.379Z,60.63
2022-08-20T14:46:25.353Z,60.73
2022-08-20T14:48:56.298Z,60.61
2022-08-20T14:51:24.535Z,60.45
2022-08-20T14:53:54.488Z,60.96
2022-08-20T14:56:22.620Z,60.74
2022-08-20T14:58:51.193Z,60.41
2022-08-20T15:01:22.228Z,60.49
2022-08-20T15:03:49.769Z,60.23
2022-08-20T15:06:21.877Z,59.88
2022-08-20T15:08:51.874Z,59.93
2022-08-20T15:11:19.936Z,60.04
2022-08-20T15:13:47.992Z,59.96
2022-08-20T15:16:16.859Z,59.94
2022-08-20T15:18:45.084Z,60.26
2022-08-20T15:21:13.911Z,60.00
2022-08-20T15:23:42.182Z,59.82
2022-08-20T15:26:10.251Z,59.86
2022-08-20T15:28:42.374Z,60.17
2022-08-20T15:31:13.446Z,60.07
2022-08-20T15:33:44.398Z,60.36
2022-08-20T15:36:12.460Z,60.08
2022-08-20T15:38:40.216Z,59.89
2022-08-20T15:41:08.420Z,60.27
2022-08-20T15:43:36.631Z,59.65
2022-08-20T15:46:06.696Z,59.99
2022-08-20T15:48:48.596Z,59.86
2022-08-20T15:51:22.629Z,60.22
2022-08-20T15:54:01.880Z,60.00
2022-08-20T15:56:59.189Z,59.83
2022-08-20T16:00:21.493Z,59.98
2022-08-20T16:03:46.525Z,60.06
2022-08-20T16:06:19.442Z,60.01
2022-08-20T16:09:16.416Z,59.50
2022-08-20T16:11:47.502Z,59.97
2022-08-20T16:14:30.590Z,60.26
2022-08-20T16:17:07.674Z,59.88
2022-08-20T16:20:03.376Z,60.27
2022-08-20T16:22:37.564Z,60.24
2022-08-20T16:25:06.903Z,59.79
2022-08-20T16:27:47.991Z,59.75
2022-08-20T16:30:34.052Z,59.82
2022-08-20T16:33:09.069Z,59.53
2022-08-20T16:35:43.148Z,59.75
2022-08-20T16:38:27.189Z,60.39
2022-08-20T16:41:02.271Z,59.56
2022-08-20T16:43:36.193Z,59.73
2022-08-20T16:46:25.288Z,59.75
2022-08-20T16:49:00.233Z,60.50
2022-08-20T16:51:52.041Z,60.35
2022-08-20T16:54:28.531Z,59.77
2022-08-20T16:57:02.624Z,60.00
2022-08-20T16:59:30.657Z,59.56
2022-08-20T17:02:10.780Z,58.18
2022-08-20T17:04:58.769Z,58.79
2022-08-20T17:07:51.552Z,58.59
2022-08-20T17:10:31.288Z,58.71
2022-08-20T17:13:20.594Z,59.37
2022-08-20T17:16:09.200Z,59.30
2022-08-20T17:18:39.021Z,59.56
2022-08-20T17:21:40.102Z,59.08
2022-08-20T17:24:20.137Z,59.22
2022-08-20T17:26:54.007Z,59.28
2022-08-20T17:29:32.756Z,59.53
2022-08-20T17:32:16.301Z,59.17
2022-08-20T17:34:51.930Z,59.48
2022-08-20T17:37:24.745Z,59.04
2022-08-20T17:39:57.473Z,59.41
2022-08-20T17:42:28.503Z,59.47
2022-08-20T17:45:10.404Z,59.34
2022-08-20T17:47:39.632Z,59.55
2022-08-20T17:50:17.664Z,59.59
2022-08-20T17:52:53.800Z,59.14
2022-08-20T17:55:21.773Z,59.58
2022-08-20T17:57:50.827Z,59.58
2022-08-20T18:00:24.872Z,59.27
2022-08-20T18:02:54.971Z,59.58
2022-08-20T18:05:22.965Z,59.91
2022-08-20T18:08:12.037Z,59.28
2022-08-20T18:10:48.034Z,59.29
2022-08-20T18:13:20.914Z,59.71
2022-08-20T18:15:56.485Z,59.50
2022-08-20T18:18:31.241Z,59.38
2022-08-20T18:21:26.292Z,59.37
2022-08-20T18:24:29.342Z,59.03
2022-08-20T18:26:59.402Z,59.37
2022-08-20T18:29:36.450Z,58.94
2022-08-20T18:32:08.508Z,58.98
2022-08-20T18:34:41.576Z,59.00
2022-08-20T18:37:19.605Z,59.11
2022-08-20T18:39:48.722Z,59.15
2022-08-20T18:42:25.702Z,59.34
2022-08-20T18:44:54.763Z,58.95
2022-08-20T18:47:42.809Z,58.82
2022-08-20T18:50:18.862Z,59.12
2022-08-20T18:52:51.010Z,59.38
2022-08-20T18:55:39.953Z,59.45
2022-08-20T18:58:10.007Z,59.36
2022-08-20T19:00:46.053Z,59.16
2022-08-20T19:03:17.785Z,59.57
2022-08-20T19:06:03.668Z,59.57
2022-08-20T19:08:50.122Z,59.23
2022-08-20T19:11:55.278Z,59.18
2022-08-20T19:14:41.332Z,58.92
2022-08-20T19:17:17.391Z,59.06
2022-08-20T19:19:45.416Z,58.83
2022-08-20T19:22:13.885Z,58.79
2022-08-20T19:24:45.536Z,59.42
2022-08-20T19:27:13.575Z,59.12
2022-08-20T19:29:47.637Z,58.63
2022-08-20T19:32:30.674Z,58.98
2022-08-20T19:35:05.746Z,59.01
2022-08-20T19:37:50.592Z,59.32
2022-08-20T19:40:30.835Z,59.13
2022-08-20T19:43:00.032Z,59.21
2022-08-20T19:45:33.931Z,59.27
2022-08-20T19:48:08.975Z,59.12
2022-08-20T19:50:49.016Z,59.19
2022-08-20T19:53:30.929Z,59.15
2022-08-20T19:56:31.971Z,58.67
2022-08-20T19:59:08.201Z,58.82
2022-08-20T20:01:36.344Z,58.84
2022-08-20T20:04:09.300Z,59.02
2022-08-20T20:06:39.362Z,58.85
2022-08-20T20:09:10.421Z,58.87
2022-08-20T20:11:44.459Z,58.87
2022-08-20T20:14:13.400Z,59.08
2022-08-20T20:16:41.579Z,58.84
2022-08-20T20:19:26.380Z,58.84
2022-08-20T20:22:20.215Z,59.35
2022-08-20T20:25:14.317Z,58.74
2022-08-20T20:27:41.758Z,58.93
2022-08-20T20:30:13.814Z,58.94
2022-08-20T20:32:42.862Z,59.17
2022-08-20T20:35:10.920Z,59.37
2022-08-20T20:37:49.064Z,58.42
2022-08-20T20:40:25.473Z,58.80
2022-08-20T20:43:08.097Z,58.74
2022-08-20T20:45:45.130Z,58.96
2022-08-20T20:48:23.185Z,58.68
2022-08-20T20:50:54.046Z,58.53
2022-08-20T20:53:48.418Z,58.68
2022-08-20T20:56:45.356Z,58.97
2022-08-20T20:59:14.395Z,58.94
2022-08-20T21:01:48.698Z,58.45
2022-08-20T21:04:19.726Z,58.77
2022-08-20T21:06:47.527Z,58.97
2022-08-20T21:09:15.431Z,58.84
2022-08-20T21:11:43.633Z,58.76
2022-08-20T21:14:11.690Z,58.56
2022-08-20T21:16:39.734Z,58.72
2022-08-20T21:19:08.764Z,58.90
2022-08-20T21:21:37.821Z,58.74
2022-08-20T21:24:05.871Z,58.88
2022-08-20T21:26:33.417Z,58.87
2022-08-20T21:29:00.962Z,58.56
2022-08-20T21:31:32.018Z,58.37
2022-08-20T21:34:00.065Z,58.83
2022-08-20T21:36:28.280Z,58.33
2022-08-20T21:38:56.160Z,58.44
2022-08-20T21:41:29.865Z,58.51
2022-08-20T21:44:00.247Z,58.95
2022-08-20T21:46:29.299Z,58.64
2022-08-20T21:48:57.386Z,58.66
2022-08-20T21:51:25.401Z,58.95
2022-08-20T21:53:53.454Z,58.65
2022-08-20T21:56:22.536Z,58.90
2022-08-20T21:58:50.569Z,58.63
2022-08-20T22:14:15.671Z,58.61
2022-08-20T22:17:21.580Z,58.63
2022-08-20T22:20:22.071Z,58.55
2022-08-20T22:23:11.010Z,58.33
2022-08-20T22:26:16.525Z,58.75
2022-08-20T22:29:09.024Z,58.72
2022-08-20T22:31:38.656Z,58.46
2022-08-20T22:34:06.610Z,58.80
2022-08-20T22:36:34.726Z,58.53
2022-08-20T22:39:02.356Z,59.11
2022-08-20T22:42:01.291Z,58.69
2022-08-20T22:44:55.682Z,59.02
2022-08-20T22:48:00.952Z,59.12
2022-08-20T22:50:53.211Z,58.96
2022-08-20T22:53:24.069Z,58.83
2022-08-20T22:56:45.585Z,59.19
2022-08-20T22:59:52.908Z,59.10
2022-08-20T23:02:53.435Z,58.71
2022-08-20T23:05:46.487Z,58.97
2022-08-20T23:08:16.351Z,59.05
2022-08-20T23:11:08.432Z,58.83
2022-08-20T23:13:37.482Z,58.61
2022-08-20T23:16:05.533Z,59.13
2022-08-20T23:18:59.595Z,58.82
2022-08-20T23:22:05.974Z,58.86
2022-08-20T23:24:36.718Z,58.97
2022-08-20T23:27:06.796Z,59.06
2022-08-20T23:29:34.803Z,59.42
2022-08-20T23:32:03.211Z,59.10
2022-08-20T23:34:33.219Z,59.46
2022-08-20T23:37:02.024Z,59.44
2022-08-20T23:39:30.091Z,59.46
2022-08-20T23:41:59.627Z,59.28
2022-08-20T23:44:29.120Z,59.48
2022-08-20T23:47:03.010Z,59.36
2022-08-20T23:49:32.681Z,59.28
2022-08-20T23:52:01.697Z,59.03
2022-08-20T23:54:30.320Z,58.90
2022-08-20T23:56:59.371Z,59.16
2022-08-20T23:59:29.261Z,59.16
